sensor_id;sensor_type;location;lat;lon;timestamp;P1;durP1;ratioP1;P2;durP2;ratioP2
69596;SDS011;56802;51.184;-115.558;2022-08-19T00:00:48;11.20;;;4.80;;
69596;SDS011;56802;51.184;-115.558;2022-08-19T00:03:18;8.80;;;4.80;;
69596;SDS011;56802;51.184;-115.558;2022-08-19T00:05:47;8.70;;;4.50;;
69596;SDS011;56802;51.184;-115.558;2022-08-19T00:08:17;11.50;;;5.10;;
69596;SDS011;56802;51.184;-115.558;2022-08-19T00:10:46;12.00;;;5.80;;
69596;SDS011;56802;51.184;-115.558;2022-08-19T00:13:16;9.90;;;5.10;;
69596;SDS011;56802;51.184;-115.558;2022-08-19T00:15:45;9.80;;;5.30;;
69596;SDS011;56802;51.184;-115.558;2022-08-19T00:18:15;8.30;;;5.10;;
69596;SDS011;56802;51.184;-115.558;2022-08-19T00:20:44;9.90;;;5.00;;
69596;SDS011;56802;51.184;-115.558;2022-08-19T00:23:14;8.10;;;4.30;;
69596;SDS011;56802;51.184;-115.558;2022-08-19T00:25:44;11.20;;;5.10;;
69596;SDS011;56802;51.184;-115.558;2022-08-19T00:28:14;11.00;;;5.00;;
69596;SDS011;56802;51.184;-115.558;2022-08-19T00:30:44;9.70;;;5.00;;
69596;SDS011;56802;51.184;-115.558;2022-08-19T00:33:13;9.20;;;4.80;;
69596;SDS011;56802;51.184;-115.558;2022-08-19T00:35:44;10.80;;;5.20;;
69596;SDS011;56802;51.184;-115.558;2022-08-19T00:38:22;8.80;;;4.90;;
69596;SDS011;56802;51.184;-115.558;2022-08-19T00:41:05;10.20;;;5.30;;
69596;SDS011;56802;51.184;-115.558;2022-08-19T00:43:34;10.60;;;5.60;;
69596;SDS011;56802;51.184;-115.558;2022-08-19T00:46:04;10.00;;;5.30;;
69596;SDS011;56802;51.184;-115.558;2022-08-19T00:48:34;9.80;;;4.50;;
69596;SDS011;56802;51.184;-115.558;2022-08-19T00:51:05;9.50;;;4.70;;
69596;SDS011;56802;51.184;-115.558;2022-08-19T00:53:34;13.10;;;5.50;;
69596;SDS011;56802;51.184;-115.558;2022-08-19T00:56:04;8.50;;;5.00;;
69596;SDS011;56802;51.184;-115.558;2022-08-19T00:58:35;12.90;;;6.00;;
69596;SDS011;56802;51.184;-115.558;2022-08-19T01:01:05;8.60;;;4.40;;
69596;SDS011;56802;51.184;-115.558;2022-08-19T01:03:38;9.80;;;5.10;;
69596;SDS011;56802;51.184;-115.558;2022-08-19T01:06:26;10.70;;;5.70;;
69596;SDS011;56802;51.184;-115.558;2022-08-19T01:08:55;9.40;;;4.80;;
69596;SDS011;56802;51.184;-115.558;2022-08-19T01:11:27;10.10;;;5.00;;
69596;SDS011;56802;51.184;-115.558;2022-08-19T01:13:57;9.30;;;4.90;;
69596;SDS011;56802;51.184;-115.558;2022-08-19T01:16:28;9.00;;;4.20;;
69596;SDS011;56802;51.184;-115.558;2022-08-19T01:18:58;10.60;;;5.10;;
69596;SDS011;56802;51.184;-115.558;2022-08-19T01:21:43;10.50;;;4.90;;
69596;SDS011;56802;51.184;-115.558;2022-08-19T01:24:20;13.60;;;4.90;;
69596;SDS011;56802;51.184;-115.558;2022-08-19T01:26:49;9.40;;;5.10;;
69596;SDS011;56802;51.184;-115.558;2022-08-19T01:29:19;10.10;;;5.20;;
69596;SDS011;56802;51.184;-115.558;2022-08-19T01:31:52;9.30;;;5.50;;
69596;SDS011;56802;51.184;-115.558;2022-08-19T01:34:21;12.00;;;5.20;;
69596;SDS011;56802;51.184;-115.558;2022-08-19T01:36:51;11.30;;;5.20;;
69596;SDS011;56802;51.184;-115.558;2022-08-19T01:39:23;11.40;;;5.70;;
69596;SDS011;56802;51.184;-115.558;2022-08-19T01:41:53;9.30;;;4.60;;
69596;SDS011;56802;51.184;-115.558;2022-08-19T01:44:23;9.90;;;4.70;;
69596;SDS011;56802;51.184;-115.558;2022-08-19T01:46:52;11.10;;;4.70;;
69596;SDS011;56802;51.184;-115.558;2022-08-19T01:49:23;10.30;;;5.20;;
69596;SDS011;56802;51.184;-115.558;2022-08-19T01:51:55;11.40;;;6.00;;
69596;SDS011;56802;51.184;-115.558;2022-08-19T01:54:26;8.80;;;5.10;;
69596;SDS011;56802;51.184;-115.558;2022-08-19T01:57:03;9.90;;;5.40;;
69596;SDS011;56802;51.184;-115.558;2022-08-19T01:59:35;11.30;;;5.00;;
69596;SDS011;56802;51.184;-115.558;2022-08-19T02:02:05;12.50;;;5.10;;
69596;SDS011;56802;51.184;-115.558;2022-08-19T02:04:38;10.50;;;4.60;;
69596;SDS011;56802;51.184;-115.558;2022-08-19T02:07:08;10.00;;;4.70;;
69596;SDS011;56802;51.184;-115.558;2022-08-19T02:09:37;10.40;;;4.20;;
69596;SDS011;56802;51.184;-115.558;2022-08-19T02:12:07;11.10;;;4.60;;
69596;SDS011;56802;51.184;-115.558;2022-08-19T02:14:37;12.00;;;4.90;;
69596;SDS011;56802;51.184;-115.558;2022-08-19T02:17:06;12.70;;;5.00;;
69596;SDS011;56802;51.184;-115.558;2022-08-19T02:19:36;8.50;;;4.40;;
69596;SDS011;56802;51.184;-115.558;2022-08-19T02:22:07;9.60;;;4.80;;
69596;SDS011;56802;51.184;-115.558;2022-08-19T02:24:36;10.10;;;4.70;;
69596;SDS011;56802;51.184;-115.558;2022-08-19T02:27:07;11.20;;;4.70;;
69596;SDS011;56802;51.184;-115.558;2022-08-19T02:29:36;13.90;;;4.50;;
69596;SDS011;56802;51.184;-115.558;2022-08-19T02:32:06;9.90;;;5.10;;
69596;SDS011;56802;51.184;-115.558;2022-08-19T02:34:36;9.80;;;5.20;;
69596;SDS011;56802;51.184;-115.558;2022-08-19T02:37:06;10.90;;;4.60;;
69596;SDS011;56802;51.184;-115.558;2022-08-19T02:39:55;10.50;;;4.60;;
69596;SDS011;56802;51.184;-115.558;2022-08-19T02:42:25;11.60;;;4.60;;
69596;SDS011;56802;51.184;-115.558;2022-08-19T02:44:56;9.20;;;5.00;;
69596;SDS011;56802;51.184;-115.558;2022-08-19T02:47:25;10.10;;;4.20;;
69596;SDS011;56802;51.184;-115.558;2022-08-19T02:49:54;9.80;;;4.50;;
69596;SDS011;56802;51.184;-115.558;2022-08-19T02:52:23;9.10;;;4.20;;
69596;SDS011;56802;51.184;-115.558;2022-08-19T02:54:53;11.30;;;5.60;;
69596;SDS011;56802;51.184;-115.558;2022-08-19T02:57:25;13.60;;;4.80;;
69596;SDS011;56802;51.184;-115.558;2022-08-19T02:59:55;10.60;;;5.20;;
69596;SDS011;56802;51.184;-115.558;2022-08-19T03:02:25;10.00;;;4.90;;
69596;SDS011;56802;51.184;-115.558;2022-08-19T03:04:54;11.10;;;4.80;;
69596;SDS011;56802;51.184;-115.558;2022-08-19T03:07:23;10.30;;;4.80;;
69596;SDS011;56802;51.184;-115.558;2022-08-19T03:09:53;8.40;;;4.30;;
69596;SDS011;56802;51.184;-115.558;2022-08-19T03:12:22;10.90;;;5.10;;
69596;SDS011;56802;51.184;-115.558;2022-08-19T03:14:52;13.80;;;5.10;;
69596;SDS011;56802;51.184;-115.558;2022-08-19T03:17:22;12.00;;;5.20;;
69596;SDS011;56802;51.184;-115.558;2022-08-19T03:19:51;9.30;;;4.60;;
69596;SDS011;56802;51.184;-115.558;2022-08-19T03:22:20;9.00;;;4.20;;
69596;SDS011;56802;51.184;-115.558;2022-08-19T03:24:49;9.70;;;4.40;;
69596;SDS011;56802;51.184;-115.558;2022-08-19T03:27:19;9.90;;;4.50;;
69596;SDS011;56802;51.184;-115.558;2022-08-19T03:29:48;12.10;;;5.50;;
69596;SDS011;56802;51.184;-115.558;2022-08-19T03:32:18;9.70;;;4.60;;
69596;SDS011;56802;51.184;-115.558;2022-08-19T03:34:59;11.10;;;4.90;;
69596;SDS011;56802;51.184;-115.558;2022-08-19T03:37:30;10.00;;;5.30;;
69596;SDS011;56802;51.184;-115.558;2022-08-19T03:40:03;11.40;;;5.40;;
69596;SDS011;56802;51.184;-115.558;2022-08-19T03:42:33;12.00;;;5.80;;
69596;SDS011;56802;51.184;-115.558;2022-08-19T03:45:16;13.00;;;5.70;;
69596;SDS011;56802;51.184;-115.558;2022-08-19T03:47:45;12.20;;;5.50;;
69596;SDS011;56802;51.184;-115.558;2022-08-19T03:50:15;13.20;;;5.60;;
69596;SDS011;56802;51.184;-115.558;2022-08-19T03:52:50;12.30;;;5.40;;
69596;SDS011;56802;51.184;-115.558;2022-08-19T03:55:20;9.60;;;4.60;;
69596;SDS011;56802;51.184;-115.558;2022-08-19T03:57:50;8.50;;;4.90;;
69596;SDS011;56802;51.184;-115.558;2022-08-19T04:00:25;9.10;;;4.70;;
69596;SDS011;56802;51.184;-115.558;2022-08-19T04:02:54;11.40;;;4.40;;
69596;SDS011;56802;51.184;-115.558;2022-08-19T04:05:28;12.40;;;5.30;;
69596;SDS011;56802;51.184;-115.558;2022-08-19T04:07:57;15.60;;;5.60;;
69596;SDS011;56802;51.184;-115.558;2022-08-19T04:10:28;11.70;;;5.30;;
69596;SDS011;56802;51.184;-115.558;2022-08-19T04:12:57;13.50;;;5.60;;
69596;SDS011;56802;51.184;-115.558;2022-08-19T04:15:26;11.00;;;4.90;;
69596;SDS011;56802;51.184;-115.558;2022-08-19T04:18:02;9.30;;;5.50;;
69596;SDS011;56802;51.184;-115.558;2022-08-19T04:20:39;11.00;;;5.20;;
69596;SDS011;56802;51.184;-115.558;2022-08-19T04:23:11;11.50;;;5.90;;
69596;SDS011;56802;51.184;-115.558;2022-08-19T04:25:43;11.70;;;5.40;;
69596;SDS011;56802;51.184;-115.558;2022-08-19T04:28:13;11.40;;;5.30;;
69596;SDS011;56802;51.184;-115.558;2022-08-19T04:30:46;11.40;;;5.60;;
69596;SDS011;56802;51.184;-115.558;2022-08-19T04:33:22;11.00;;;5.00;;
69596;SDS011;56802;51.184;-115.558;2022-08-19T04:35:54;12.70;;;5.10;;
69596;SDS011;56802;51.184;-115.558;2022-08-19T04:38:26;10.70;;;5.40;;
69596;SDS011;56802;51.184;-115.558;2022-08-19T04:40:56;21.10;;;5.90;;
69596;SDS011;56802;51.184;-115.558;2022-08-19T04:43:45;11.20;;;5.40;;
69596;SDS011;56802;51.184;-115.558;2022-08-19T04:46:18;11.80;;;5.50;;
69596;SDS011;56802;51.184;-115.558;2022-08-19T04:49:08;12.20;;;5.50;;
69596;SDS011;56802;51.184;-115.558;2022-08-19T04:51:41;13.40;;;6.00;;
69596;SDS011;56802;51.184;-115.558;2022-08-19T04:54:12;34.00;;;7.30;;
69596;SDS011;56802;51.184;-115.558;2022-08-19T04:57:02;25.80;;;6.40;;
69596;SDS011;56802;51.184;-115.558;2022-08-19T04:59:35;17.00;;;5.60;;
69596;SDS011;56802;51.184;-115.558;2022-08-19T05:02:07;12.10;;;5.60;;
69596;SDS011;56802;51.184;-115.558;2022-08-19T05:04:38;14.00;;;5.60;;
69596;SDS011;56802;51.184;-115.558;2022-08-19T05:07:08;10.40;;;5.60;;
69596;SDS011;56802;51.184;-115.558;2022-08-19T05:09:37;10.60;;;5.90;;
69596;SDS011;56802;51.184;-115.558;2022-08-19T05:12:25;12.30;;;6.00;;
69596;SDS011;56802;51.184;-115.558;2022-08-19T05:14:57;14.40;;;5.90;;
69596;SDS011;56802;51.184;-115.558;2022-08-19T05:17:27;10.50;;;5.20;;
69596;SDS011;56802;51.184;-115.558;2022-08-19T05:20:07;11.80;;;5.70;;
69596;SDS011;56802;51.184;-115.558;2022-08-19T05:22:55;11.30;;;5.60;;
69596;SDS011;56802;51.184;-115.558;2022-08-19T05:25:24;12.00;;;5.40;;
69596;SDS011;56802;51.184;-115.558;2022-08-19T05:27:54;12.60;;;5.50;;
69596;SDS011;56802;51.184;-115.558;2022-08-19T05:30:23;11.20;;;5.30;;
69596;SDS011;56802;51.184;-115.558;2022-08-19T05:33:13;14.50;;;5.20;;
69596;SDS011;56802;51.184;-115.558;2022-08-19T05:35:42;13.20;;;5.10;;
69596;SDS011;56802;51.184;-115.558;2022-08-19T05:38:12;10.40;;;5.50;;
69596;SDS011;56802;51.184;-115.558;2022-08-19T05:40:42;10.50;;;5.10;;
69596;SDS011;56802;51.184;-115.558;2022-08-19T05:43:16;10.30;;;5.00;;
69596;SDS011;56802;51.184;-115.558;2022-08-19T05:45:46;9.60;;;6.20;;
69596;SDS011;56802;51.184;-115.558;2022-08-19T05:48:15;17.10;;;7.30;;
69596;SDS011;56802;51.184;-115.558;2022-08-19T05:50:45;15.80;;;6.60;;
69596;SDS011;56802;51.184;-115.558;2022-08-19T05:53:18;12.30;;;6.00;;
69596;SDS011;56802;51.184;-115.558;2022-08-19T05:55:48;11.10;;;5.60;;
69596;SDS011;56802;51.184;-115.558;2022-08-19T05:58:17;12.70;;;6.50;;
69596;SDS011;56802;51.184;-115.558;2022-08-19T06:00:52;12.10;;;5.50;;
69596;SDS011;56802;51.184;-115.558;2022-08-19T06:03:23;11.40;;;6.10;;
69596;SDS011;56802;51.184;-115.558;2022-08-19T06:05:52;9.60;;;5.40;;
69596;SDS011;56802;51.184;-115.558;2022-08-19T06:08:25;13.40;;;5.80;;
69596;SDS011;56802;51.184;-115.558;2022-08-19T06:11:16;9.50;;;5.20;;
69596;SDS011;56802;51.184;-115.558;2022-08-19T06:13:53;10.40;;;5.40;;
69596;SDS011;56802;51.184;-115.558;2022-08-19T06:16:26;11.10;;;5.30;;
69596;SDS011;56802;51.184;-115.558;2022-08-19T06:18:57;11.40;;;4.80;;
69596;SDS011;56802;51.184;-115.558;2022-08-19T06:21:30;10.70;;;5.10;;
69596;SDS011;56802;51.184;-115.558;2022-08-19T06:23:59;11.20;;;5.30;;
69596;SDS011;56802;51.184;-115.558;2022-08-19T06:26:29;8.80;;;5.30;;
69596;SDS011;56802;51.184;-115.558;2022-08-19T06:28:59;12.20;;;5.50;;
69596;SDS011;56802;51.184;-115.558;2022-08-19T06:31:29;8.50;;;5.00;;
69596;SDS011;56802;51.184;-115.558;2022-08-19T06:34:02;10.10;;;5.20;;
69596;SDS011;56802;51.184;-115.558;2022-08-19T06:36:36;10.60;;;4.90;;
69596;SDS011;56802;51.184;-115.558;2022-08-19T06:39:14;11.10;;;5.30;;
69596;SDS011;56802;51.184;-115.558;2022-08-19T06:41:49;9.40;;;5.00;;
69596;SDS011;56802;51.184;-115.558;2022-08-19T06:44:27;12.60;;;5.30;;
69596;SDS011;56802;51.184;-115.558;2022-08-19T06:46:58;9.70;;;5.30;;
69596;SDS011;56802;51.184;-115.558;2022-08-19T06:49:36;10.60;;;5.30;;
69596;SDS011;56802;51.184;-115.558;2022-08-19T06:52:06;10.90;;;5.50;;
69596;SDS011;56802;51.184;-115.558;2022-08-19T06:54:40;9.70;;;5.30;;
69596;SDS011;56802;51.184;-115.558;2022-08-19T06:57:24;11.80;;;5.30;;
69596;SDS011;56802;51.184;-115.558;2022-08-19T06:59:53;8.70;;;5.20;;
69596;SDS011;56802;51.184;-115.558;2022-08-19T07:02:24;9.10;;;5.10;;
69596;SDS011;56802;51.184;-115.558;2022-08-19T07:04:55;8.70;;;5.10;;
69596;SDS011;56802;51.184;-115.558;2022-08-19T07:07:26;9.80;;;5.30;;
69596;SDS011;56802;51.184;-115.558;2022-08-19T07:09:56;9.40;;;5.60;;
69596;SDS011;56802;51.184;-115.558;2022-08-19T07:12:31;8.90;;;5.00;;
69596;SDS011;56802;51.184;-115.558;2022-08-19T07:15:05;11.60;;;5.20;;
69596;SDS011;56802;51.184;-115.558;2022-08-19T07:17:37;10.40;;;4.80;;
69596;SDS011;56802;51.184;-115.558;2022-08-19T07:20:08;11.50;;;5.50;;
69596;SDS011;56802;51.184;-115.558;2022-08-19T07:22:39;10.70;;;4.90;;
69596;SDS011;56802;51.184;-115.558;2022-08-19T07:25:09;10.40;;;5.20;;
69596;SDS011;56802;51.184;-115.558;2022-08-19T07:27:41;8.80;;;5.30;;
69596;SDS011;56802;51.184;-115.558;2022-08-19T07:30:12;10.10;;;5.40;;
69596;SDS011;56802;51.184;-115.558;2022-08-19T07:32:42;12.20;;;5.60;;
69596;SDS011;56802;51.184;-115.558;2022-08-19T07:35:11;9.80;;;5.30;;
69596;SDS011;56802;51.184;-115.558;2022-08-19T07:37:40;11.10;;;5.30;;
69596;SDS011;56802;51.184;-115.558;2022-08-19T07:40:13;9.90;;;5.20;;
69596;SDS011;56802;51.184;-115.558;2022-08-19T07:42:42;10.20;;;5.30;;
69596;SDS011;56802;51.184;-115.558;2022-08-19T07:45:12;10.50;;;5.20;;
69596;SDS011;56802;51.184;-115.558;2022-08-19T07:47:42;9.50;;;5.30;;
69596;SDS011;56802;51.184;-115.558;2022-08-19T07:50:18;9.70;;;5.40;;
69596;SDS011;56802;51.184;-115.558;2022-08-19T07:52:51;10.40;;;5.30;;
69596;SDS011;56802;51.184;-115.558;2022-08-19T07:55:23;10.00;;;5.70;;
69596;SDS011;56802;51.184;-115.558;2022-08-19T07:58:11;9.90;;;5.50;;
69596;SDS011;56802;51.184;-115.558;2022-08-19T08:00:43;10.20;;;5.10;;
69596;SDS011;56802;51.184;-115.558;2022-08-19T08:03:16;9.50;;;5.10;;
69596;SDS011;56802;51.184;-115.558;2022-08-19T08:05:47;11.50;;;5.60;;
69596;SDS011;56802;51.184;-115.558;2022-08-19T08:08:35;10.70;;;5.10;;
69596;SDS011;56802;51.184;-115.558;2022-08-19T08:11:24;14.60;;;5.80;;
69596;SDS011;56802;51.184;-115.558;2022-08-19T08:13:55;9.80;;;5.60;;
69596;SDS011;56802;51.184;-115.558;2022-08-19T08:16:34;11.30;;;5.60;;
69596;SDS011;56802;51.184;-115.558;2022-08-19T08:19:13;10.80;;;5.40;;
69596;SDS011;56802;51.184;-115.558;2022-08-19T08:21:57;8.40;;;5.40;;
69596;SDS011;56802;51.184;-115.558;2022-08-19T08:24:30;9.40;;;6.00;;
69596;SDS011;56802;51.184;-115.558;2022-08-19T08:27:01;10.30;;;5.70;;
69596;SDS011;56802;51.184;-115.558;2022-08-19T08:29:37;9.20;;;5.40;;
69596;SDS011;56802;51.184;-115.558;2022-08-19T08:32:09;10.20;;;5.50;;
69596;SDS011;56802;51.184;-115.558;2022-08-19T08:34:41;9.30;;;5.80;;
69596;SDS011;56802;51.184;-115.558;2022-08-19T08:37:13;8.30;;;5.90;;
69596;SDS011;56802;51.184;-115.558;2022-08-19T08:39:43;10.90;;;5.80;;
69596;SDS011;56802;51.184;-115.558;2022-08-19T08:42:28;10.10;;;5.50;;
69596;SDS011;56802;51.184;-115.558;2022-08-19T08:45:08;11.10;;;5.50;;
69596;SDS011;56802;51.184;-115.558;2022-08-19T08:47:48;10.90;;;5.40;;
69596;SDS011;56802;51.184;-115.558;2022-08-19T08:50:42;9.20;;;5.40;;
69596;SDS011;56802;51.184;-115.558;2022-08-19T08:53:17;9.70;;;5.00;;
69596;SDS011;56802;51.184;-115.558;2022-08-19T08:55:55;9.50;;;5.60;;
69596;SDS011;56802;51.184;-115.558;2022-08-19T08:58:36;10.70;;;5.20;;
69596;SDS011;56802;51.184;-115.558;2022-08-19T09:01:11;10.50;;;5.70;;
69596;SDS011;56802;51.184;-115.558;2022-08-19T09:03:43;9.60;;;5.60;;
69596;SDS011;56802;51.184;-115.558;2022-08-19T09:06:36;8.70;;;5.80;;
69596;SDS011;56802;51.184;-115.558;2022-08-19T09:10:02;10.90;;;5.90;;
69596;SDS011;56802;51.184;-115.558;2022-08-19T09:16:11;10.70;;;5.70;;
69596;SDS011;56802;51.184;-115.558;2022-08-19T09:18:57;13.20;;;6.00;;
69596;SDS011;56802;51.184;-115.558;2022-08-19T09:21:32;9.70;;;5.80;;
69596;SDS011;56802;51.184;-115.558;2022-08-19T09:24:05;9.90;;;5.90;;
69596;SDS011;56802;51.184;-115.558;2022-08-19T09:26:34;10.10;;;6.10;;
69596;SDS011;56802;51.184;-115.558;2022-08-19T09:29:19;10.20;;;5.70;;
69596;SDS011;56802;51.184;-115.558;2022-08-19T09:31:49;9.80;;;6.00;;
69596;SDS011;56802;51.184;-115.558;2022-08-19T09:34:18;10.00;;;5.70;;
69596;SDS011;56802;51.184;-115.558;2022-08-19T09:36:50;10.10;;;6.60;;
69596;SDS011;56802;51.184;-115.558;2022-08-19T09:39:21;10.70;;;5.80;;
69596;SDS011;56802;51.184;-115.558;2022-08-19T09:42:02;13.50;;;6.10;;
69596;SDS011;56802;51.184;-115.558;2022-08-19T09:44:43;14.70;;;6.30;;
69596;SDS011;56802;51.184;-115.558;2022-08-19T09:47:13;11.50;;;6.20;;
69596;SDS011;56802;51.184;-115.558;2022-08-19T09:49:46;10.10;;;5.80;;
69596;SDS011;56802;51.184;-115.558;2022-08-19T09:52:16;9.80;;;6.10;;
69596;SDS011;56802;51.184;-115.558;2022-08-19T09:54:46;9.90;;;5.90;;
69596;SDS011;56802;51.184;-115.558;2022-08-19T09:57:18;10.30;;;6.20;;
69596;SDS011;56802;51.184;-115.558;2022-08-19T09:59:47;10.80;;;5.90;;
69596;SDS011;56802;51.184;-115.558;2022-08-19T10:02:16;10.10;;;6.50;;
69596;SDS011;56802;51.184;-115.558;2022-08-19T10:04:48;11.20;;;6.40;;
69596;SDS011;56802;51.184;-115.558;2022-08-19T10:07:36;11.40;;;6.50;;
69596;SDS011;56802;51.184;-115.558;2022-08-19T10:10:06;11.50;;;6.20;;
69596;SDS011;56802;51.184;-115.558;2022-08-19T10:12:38;12.10;;;6.00;;
69596;SDS011;56802;51.184;-115.558;2022-08-19T10:15:08;9.80;;;6.10;;
69596;SDS011;56802;51.184;-115.558;2022-08-19T10:17:38;12.20;;;6.10;;
69596;SDS011;56802;51.184;-115.558;2022-08-19T10:20:14;10.10;;;6.20;;
69596;SDS011;56802;51.184;-115.558;2022-08-19T10:22:44;12.50;;;6.60;;
69596;SDS011;56802;51.184;-115.558;2022-08-19T10:25:18;12.10;;;6.60;;
69596;SDS011;56802;51.184;-115.558;2022-08-19T10:27:47;13.10;;;6.90;;
69596;SDS011;56802;51.184;-115.558;2022-08-19T10:30:17;11.60;;;6.30;;
69596;SDS011;56802;51.184;-115.558;2022-08-19T10:32:50;11.10;;;5.90;;
69596;SDS011;56802;51.184;-115.558;2022-08-19T10:35:21;10.00;;;6.90;;
69596;SDS011;56802;51.184;-115.558;2022-08-19T10:37:53;11.30;;;6.40;;
69596;SDS011;56802;51.184;-115.558;2022-08-19T10:40:28;12.00;;;6.60;;
69596;SDS011;56802;51.184;-115.558;2022-08-19T10:42:57;10.50;;;6.50;;
69596;SDS011;56802;51.184;-115.558;2022-08-19T10:45:27;11.00;;;6.10;;
69596;SDS011;56802;51.184;-115.558;2022-08-19T10:47:57;12.10;;;7.00;;
69596;SDS011;56802;51.184;-115.558;2022-08-19T10:50:26;11.50;;;6.90;;
69596;SDS011;56802;51.184;-115.558;2022-08-19T10:53:14;11.60;;;6.80;;
69596;SDS011;56802;51.184;-115.558;2022-08-19T10:55:44;13.90;;;7.00;;
69596;SDS011;56802;51.184;-115.558;2022-08-19T10:58:32;11.60;;;6.90;;
69596;SDS011;56802;51.184;-115.558;2022-08-19T11:01:01;14.40;;;8.30;;
69596;SDS011;56802;51.184;-115.558;2022-08-19T11:03:31;11.40;;;6.70;;
69596;SDS011;56802;51.184;-115.558;2022-08-19T11:06:01;11.50;;;7.20;;
69596;SDS011;56802;51.184;-115.558;2022-08-19T11:08:34;10.80;;;6.70;;
69596;SDS011;56802;51.184;-115.558;2022-08-19T11:11:06;11.00;;;6.20;;
69596;SDS011;56802;51.184;-115.558;2022-08-19T11:13:40;11.80;;;7.20;;
69596;SDS011;56802;51.184;-115.558;2022-08-19T11:16:15;11.90;;;7.60;;
69596;SDS011;56802;51.184;-115.558;2022-08-19T11:18:53;10.60;;;7.20;;
69596;SDS011;56802;51.184;-115.558;2022-08-19T11:21:31;10.60;;;6.80;;
69596;SDS011;56802;51.184;-115.558;2022-08-19T11:24:08;13.00;;;6.50;;
69596;SDS011;56802;51.184;-115.558;2022-08-19T11:26:43;11.30;;;6.50;;
69596;SDS011;56802;51.184;-115.558;2022-08-19T11:29:14;11.30;;;6.70;;
69596;SDS011;56802;51.184;-115.558;2022-08-19T11:31:46;10.40;;;6.70;;
69596;SDS011;56802;51.184;-115.558;2022-08-19T11:34:21;10.70;;;6.20;;
69596;SDS011;56802;51.184;-115.558;2022-08-19T11:36:55;12.20;;;7.50;;
69596;SDS011;56802;51.184;-115.558;2022-08-19T11:39:30;11.00;;;6.30;;
69596;SDS011;56802;51.184;-115.558;2022-08-19T11:42:00;11.80;;;6.70;;
69596;SDS011;56802;51.184;-115.558;2022-08-19T11:44:52;11.50;;;6.70;;
69596;SDS011;56802;51.184;-115.558;2022-08-19T11:47:22;9.70;;;6.30;;
69596;SDS011;56802;51.184;-115.558;2022-08-19T11:49:52;12.30;;;6.90;;
69596;SDS011;56802;51.184;-115.558;2022-08-19T11:52:21;10.80;;;6.40;;
69596;SDS011;56802;51.184;-115.558;2022-08-19T11:54:51;10.80;;;6.50;;
69596;SDS011;56802;51.184;-115.558;2022-08-19T11:57:20;10.90;;;6.50;;
69596;SDS011;56802;51.184;-115.558;2022-08-19T11:59:50;11.50;;;6.50;;
69596;SDS011;56802;51.184;-115.558;2022-08-19T12:02:20;10.40;;;6.40;;
69596;SDS011;56802;51.184;-115.558;2022-08-19T12:04:51;9.70;;;6.10;;
69596;SDS011;56802;51.184;-115.558;2022-08-19T12:07:20;11.40;;;6.80;;
69596;SDS011;56802;51.184;-115.558;2022-08-19T12:09:49;9.10;;;6.20;;
69596;SDS011;56802;51.184;-115.558;2022-08-19T12:12:21;10.00;;;6.70;;
69596;SDS011;56802;51.184;-115.558;2022-08-19T12:14:51;10.70;;;6.40;;
69596;SDS011;56802;51.184;-115.558;2022-08-19T12:17:26;13.50;;;7.20;;
69596;SDS011;56802;51.184;-115.558;2022-08-19T12:19:56;10.10;;;6.60;;
69596;SDS011;56802;51.184;-115.558;2022-08-19T12:22:26;10.40;;;6.70;;
69596;SDS011;56802;51.184;-115.558;2022-08-19T12:24:56;12.10;;;7.10;;
69596;SDS011;56802;51.184;-115.558;2022-08-19T12:27:26;11.90;;;6.60;;
69596;SDS011;56802;51.184;-115.558;2022-08-19T12:30:15;10.10;;;6.90;;
69596;SDS011;56802;51.184;-115.558;2022-08-19T12:32:45;13.50;;;7.30;;
69596;SDS011;56802;51.184;-115.558;2022-08-19T12:35:14;12.00;;;7.30;;
69596;SDS011;56802;51.184;-115.558;2022-08-19T12:37:43;9.60;;;6.60;;
69596;SDS011;56802;51.184;-115.558;2022-08-19T12:40:23;11.30;;;7.10;;
69596;SDS011;56802;51.184;-115.558;2022-08-19T12:42:54;12.60;;;6.70;;
69596;SDS011;56802;51.184;-115.558;2022-08-19T12:45:23;12.20;;;6.90;;
69596;SDS011;56802;51.184;-115.558;2022-08-19T12:47:54;11.20;;;6.60;;
69596;SDS011;56802;51.184;-115.558;2022-08-19T12:50:24;11.30;;;7.00;;
69596;SDS011;56802;51.184;-115.558;2022-08-19T12:52:54;12.30;;;6.60;;
69596;SDS011;56802;51.184;-115.558;2022-08-19T12:55:24;10.70;;;7.20;;
69596;SDS011;56802;51.184;-115.558;2022-08-19T12:57:56;10.50;;;6.80;;
69596;SDS011;56802;51.184;-115.558;2022-08-19T13:00:25;10.90;;;7.40;;
69596;SDS011;56802;51.184;-115.558;2022-08-19T13:02:55;10.20;;;6.70;;
69596;SDS011;56802;51.184;-115.558;2022-08-19T13:05:28;9.80;;;6.40;;
69596;SDS011;56802;51.184;-115.558;2022-08-19T13:07:59;11.10;;;7.50;;
69596;SDS011;56802;51.184;-115.558;2022-08-19T13:10:34;12.30;;;7.00;;
69596;SDS011;56802;51.184;-115.558;2022-08-19T13:13:06;15.10;;;6.90;;
69596;SDS011;56802;51.184;-115.558;2022-08-19T13:15:39;10.50;;;6.40;;
69596;SDS011;56802;51.184;-115.558;2022-08-19T13:18:10;12.40;;;6.80;;
69596;SDS011;56802;51.184;-115.558;2022-08-19T13:20:43;11.30;;;6.90;;
69596;SDS011;56802;51.184;-115.558;2022-08-19T13:23:19;10.80;;;6.50;;
69596;SDS011;56802;51.184;-115.558;2022-08-19T13:25:59;11.40;;;6.80;;
69596;SDS011;56802;51.184;-115.558;2022-08-19T13:28:31;11.90;;;7.30;;
69596;SDS011;56802;51.184;-115.558;2022-08-19T13:31:21;11.50;;;6.40;;
69596;SDS011;56802;51.184;-115.558;2022-08-19T13:34:11;12.40;;;6.90;;
69596;SDS011;56802;51.184;-115.558;2022-08-19T13:36:41;10.70;;;7.00;;
69596;SDS011;56802;51.184;-115.558;2022-08-19T13:39:12;12.50;;;7.10;;
69596;SDS011;56802;51.184;-115.558;2022-08-19T13:41:45;11.30;;;7.40;;
69596;SDS011;56802;51.184;-115.558;2022-08-19T13:44:16;12.20;;;7.00;;
69596;SDS011;56802;51.184;-115.558;2022-08-19T13:46:48;11.20;;;6.60;;
69596;SDS011;56802;51.184;-115.558;2022-08-19T13:49:20;10.70;;;7.20;;
69596;SDS011;56802;51.184;-115.558;2022-08-19T13:51:51;10.20;;;6.90;;
69596;SDS011;56802;51.184;-115.558;2022-08-19T13:54:20;10.80;;;6.80;;
69596;SDS011;56802;51.184;-115.558;2022-08-19T13:56:49;10.30;;;6.70;;
69596;SDS011;56802;51.184;-115.558;2022-08-19T13:59:19;10.80;;;7.10;;
69596;SDS011;56802;51.184;-115.558;2022-08-19T14:01:48;11.10;;;7.20;;
69596;SDS011;56802;51.184;-115.558;2022-08-19T14:04:18;10.30;;;6.90;;
69596;SDS011;56802;51.184;-115.558;2022-08-19T14:06:47;12.80;;;6.60;;
69596;SDS011;56802;51.184;-115.558;2022-08-19T14:09:17;11.80;;;7.00;;
69596;SDS011;56802;51.184;-115.558;2022-08-19T14:11:46;12.30;;;7.70;;
69596;SDS011;56802;51.184;-115.558;2022-08-19T14:14:16;12.20;;;7.00;;
69596;SDS011;56802;51.184;-115.558;2022-08-19T14:16:45;11.30;;;7.50;;
69596;SDS011;56802;51.184;-115.558;2022-08-19T14:19:15;11.90;;;7.20;;
69596;SDS011;56802;51.184;-115.558;2022-08-19T14:21:45;11.70;;;7.60;;
69596;SDS011;56802;51.184;-115.558;2022-08-19T14:24:14;11.20;;;7.30;;
69596;SDS011;56802;51.184;-115.558;2022-08-19T14:26:43;11.90;;;7.50;;
69596;SDS011;56802;51.184;-115.558;2022-08-19T14:29:12;12.10;;;6.70;;
69596;SDS011;56802;51.184;-115.558;2022-08-19T14:31:42;11.10;;;7.50;;
69596;SDS011;56802;51.184;-115.558;2022-08-19T14:34:12;11.90;;;7.20;;